Time;durP1;ratioP1;P1;durP2;ratioP2;P2;SDS_P1;SDS_P2;PMS_P1;PMS_P2;Temp;Humidity;BMP_temperature;BMP_pressure;BME280_temperature;BME280_humidity;BME280_pressure;Samples;Min_cycle;Max_cycle;Signal;HPM_P1;HPM_P2
2021/08/30 00:02:13;;;;;;;5.05;2.90;;;;;;;;;;4953202;28;20035;-88
2021/08/30 00:04:38;;;;;;;3.37;3.07;;;;;;;;;;4959612;28;20023;-88
2021/08/30 00:07:04;;;;;;;4.17;3.20;;;;;;;;;;4948735;28;20261;-88
2021/08/30 00:09:29;;;;;;;5.07;3.55;;;;;;;;;;4967053;28;21122;-89
2021/08/30 00:11:54;;;;;;;5.27;3.63;;;;;;;;;;4965986;28;20110;-88
2021/08/30 00:14:19;;;;;;;7.03;4.00;;;;;;;;;;4959104;28;20354;-87
2021/08/30 00:16:45;;;;;;;5.07;3.57;;;;;;;;;;4972098;28;20263;-88
2021/08/30 00:19:10;;;;;;;7.40;4.30;;;;;;;;;;4962994;28;20262;-89
2021/08/30 00:21:35;;;;;;;5.60;4.40;;;;;;;;;;4962787;28;20027;-89
2021/08/30 00:24:00;;;;;;;7.28;5.03;;;;;;;;;;4957727;28;20296;-89
2021/08/30 00:26:26;;;;;;;6.93;5.37;;;;;;;;;;4943054;29;20547;-88
2021/08/30 00:28:51;;;;;;;5.60;4.72;;;;;;;;;;4954394;28;20659;-89
2021/08/30 00:31:16;;;;;;;10.38;6.63;;;;;;;;;;4965225;28;20050;-87
2021/08/30 00:33:41;;;;;;;9.40;5.93;;;;;;;;;;4964958;28;20019;-88
2021/08/30 00:36:07;;;;;;;7.38;5.10;;;;;;;;;;4948526;28;20265;-88
2021/08/30 00:38:32;;;;;;;6.15;4.53;;;;;;;;;;4958871;28;20093;-88
2021/08/30 00:40:58;;;;;;;10.75;5.90;;;;;;;;;;4961696;28;20016;-87
2021/08/30 00:43:23;;;;;;;5.75;4.78;;;;;;;;;;4949570;28;20621;-88
2021/08/30 00:45:48;;;;;;;9.93;6.90;;;;;;;;;;4971902;28;20195;-88
2021/08/30 00:48:14;;;;;;;7.60;5.78;;;;;;;;;;4972241;28;20031;-88
2021/08/30 00:50:39;;;;;;;8.43;6.32;;;;;;;;;;4971644;28;20014;-86
2021/08/30 00:53:05;;;;;;;8.40;6.40;;;;;;;;;;4973641;28;20031;-88
2021/08/30 00:55:31;;;;;;;8.90;6.68;;;;;;;;;;4975657;28;20025;-87
2021/08/30 00:57:58;;;;;;;6.53;5.50;;;;;;;;;;4975695;28;20654;-86
2021/08/30 01:00:23;;;;;;;7.40;6.43;;;;;;;;;;5002499;28;20019;-87
2021/08/30 01:02:49;;;;;;;7.85;6.30;;;;;;;;;;4978974;28;20030;-88
2021/08/30 01:05:15;;;;;;;6.55;5.60;;;;;;;;;;4999277;28;20086;-88
2021/08/30 01:07:45;;;;;;;5.40;4.82;;;;;;;;;;4975930;28;20425;-87
2021/08/30 01:10:12;;;;;;;7.93;6.53;;;;;;;;;;4981513;28;20473;-87
2021/08/30 01:12:42;;;;;;;7.72;5.85;;;;;;;;;;4977398;28;20685;-87
2021/08/30 01:15:19;;;;;;;8.65;7.00;;;;;;;;;;4974888;28;20402;-87
2021/08/30 01:17:45;;;;;;;6.78;5.35;;;;;;;;;;4974470;28;20378;-87
2021/08/30 01:20:13;;;;;;;7.72;6.93;;;;;;;;;;4973796;28;20015;-87
2021/08/30 01:22:42;;;;;;;7.28;5.65;;;;;;;;;;4975242;28;20015;-88
2021/08/30 01:25:18;;;;;;;8.52;5.93;;;;;;;;;;4967794;28;20026;-88
2021/08/30 01:27:44;;;;;;;8.98;7.13;;;;;;;;;;4975573;28;20057;-88
2021/08/30 01:30:14;;;;;;;7.85;6.93;;;;;;;;;;4997180;28;20026;-89
2021/08/30 01:32:41;;;;;;;9.65;6.93;;;;;;;;;;4964517;28;20558;-89
2021/08/30 01:35:12;;;;;;;8.15;6.97;;;;;;;;;;4971220;28;20025;-89
2021/08/30 01:37:38;;;;;;;8.38;6.57;;;;;;;;;;4974787;28;20576;-89
2021/08/30 01:40:05;;;;;;;10.25;7.65;;;;;;;;;;4974860;28;20441;-89
2021/08/30 01:42:33;;;;;;;10.35;6.25;;;;;;;;;;5005074;28;20399;-89
2021/08/30 01:44:59;;;;;;;7.78;6.30;;;;;;;;;;4968033;28;20835;-89
2021/08/30 01:47:27;;;;;;;8.13;6.35;;;;;;;;;;4961747;28;20069;-88
2021/08/30 01:50:04;;;;;;;8.50;5.72;;;;;;;;;;4943328;29;20407;-89
2021/08/30 01:52:33;;;;;;;9.07;6.00;;;;;;;;;;4955775;28;20085;-89
2021/08/30 01:55:05;;;;;;;6.05;5.45;;;;;;;;;;4962237;28;20694;-88
2021/08/30 01:57:40;;;;;;;8.40;6.47;;;;;;;;;;4955819;28;20386;-89
2021/08/30 02:02:49;;;;;;;8.45;6.20;;;;;;;;;;4973187;28;20030;-88
2021/08/30 02:05:15;;;;;;;9.15;6.10;;;;;;;;;;4961951;28;20371;-88
2021/08/30 02:07:40;;;;;;;8.50;6.18;;;;;;;;;;4954630;28;20035;-87
2021/08/30 02:10:06;;;;;;;9.70;6.27;;;;;;;;;;4967481;28;20019;-88
2021/08/30 02:12:31;;;;;;;7.97;5.68;;;;;;;;;;4958118;28;20772;-88
2021/08/30 02:14:56;;;;;;;6.32;5.38;;;;;;;;;;4964042;28;20096;-88
2021/08/30 02:17:26;;;;;;;8.82;5.70;;;;;;;;;;4963094;28;20058;-88
2021/08/30 02:19:56;;;;;;;10.35;6.53;;;;;;;;;;4951034;28;20023;-88
2021/08/30 02:22:29;;;;;;;7.72;5.55;;;;;;;;;;4953484;28;20260;-88
2021/08/30 02:24:56;;;;;;;8.70;6.07;;;;;;;;;;4954617;28;20050;-88
2021/08/30 02:27:48;;;;;;;7.18;5.80;;;;;;;;;;4963937;28;20304;-88
2021/08/30 02:30:32;;;;;;;9.35;7.15;;;;;;;;;;4955331;28;20035;-88
2021/08/30 02:33:00;;;;;;;8.30;6.30;;;;;;;;;;4961106;28;20041;-88
2021/08/30 02:35:27;;;;;;;13.05;6.82;;;;;;;;;;4954143;28;20159;-87
2021/08/30 02:37:53;;;;;;;6.68;5.53;;;;;;;;;;4959423;28;20287;-86
2021/08/30 02:40:22;;;;;;;7.03;5.60;;;;;;;;;;4953029;28;20028;-86
2021/08/30 02:42:49;;;;;;;9.63;6.20;;;;;;;;;;4959039;28;20053;-86
2021/08/30 02:45:14;;;;;;;7.43;5.20;;;;;;;;;;4967855;28;20019;-87
2021/08/30 02:47:41;;;;;;;7.30;6.25;;;;;;;;;;4965928;28;20081;-88
2021/08/30 02:50:07;;;;;;;7.30;5.97;;;;;;;;;;4948167;29;20041;-86
2021/08/30 02:52:33;;;;;;;5.47;4.53;;;;;;;;;;4959872;28;20456;-86
2021/08/30 02:54:59;;;;;;;5.38;4.88;;;;;;;;;;4945274;29;20050;-87
2021/08/30 02:57:24;;;;;;;5.85;4.85;;;;;;;;;;4958328;28;20062;-86
2021/08/30 02:59:54;;;;;;;7.20;4.82;;;;;;;;;;4944590;29;20497;-87
2021/08/30 03:02:21;;;;;;;4.80;4.32;;;;;;;;;;4937078;28;20338;-86
2021/08/30 03:04:46;;;;;;;6.95;5.45;;;;;;;;;;4963592;28;20038;-85
2021/08/30 03:07:12;;;;;;;4.57;4.05;;;;;;;;;;4951923;28;20378;-88
2021/08/30 03:09:38;;;;;;;6.63;4.20;;;;;;;;;;4945927;29;20157;-86
2021/08/30 03:12:04;;;;;;;6.45;3.90;;;;;;;;;;4954627;28;20114;-87
2021/08/30 03:14:30;;;;;;;5.60;4.88;;;;;;;;;;4965164;28;20026;-87
2021/08/30 03:16:58;;;;;;;5.70;3.90;;;;;;;;;;4954447;28;20058;-87
2021/08/30 03:19:24;;;;;;;4.82;3.75;;;;;;;;;;4964159;28;20599;-86
2021/08/30 03:21:50;;;;;;;4.50;3.88;;;;;;;;;;4958855;28;20015;-87
2021/08/30 03:24:15;;;;;;;6.70;4.30;;;;;;;;;;4967506;28;20023;-86
2021/08/30 03:26:41;;;;;;;5.13;3.92;;;;;;;;;;4958829;28;20030;-87
2021/08/30 03:29:07;;;;;;;4.82;3.85;;;;;;;;;;4948115;28;20022;-86
2021/08/30 03:31:34;;;;;;;5.88;3.80;;;;;;;;;;4962607;28;20082;-86
2021/08/30 03:34:00;;;;;;;4.72;3.60;;;;;;;;;;4965732;28;20373;-87
2021/08/30 03:36:27;;;;;;;4.57;3.13;;;;;;;;;;4958658;28;20428;-86
2021/08/30 03:38:52;;;;;;;5.53;4.22;;;;;;;;;;4966424;28;20023;-88
2021/08/30 03:41:18;;;;;;;4.57;4.07;;;;;;;;;;4968136;28;20517;-89
2021/08/30 03:43:44;;;;;;;5.57;3.80;;;;;;;;;;4961299;28;20058;-88
2021/08/30 03:46:12;;;;;;;5.13;4.05;;;;;;;;;;4972662;28;20033;-88
2021/08/30 03:48:37;;;;;;;5.13;4.53;;;;;;;;;;4972791;28;20019;-88
2021/08/30 03:51:04;;;;;;;6.65;4.55;;;;;;;;;;4972056;28;20046;-87
2021/08/30 03:53:30;;;;;;;7.40;4.95;;;;;;;;;;4989685;28;20466;-88
2021/08/30 03:55:56;;;;;;;8.05;5.70;;;;;;;;;;4972160;28;20054;-87
2021/08/30 03:58:21;;;;;;;7.53;5.95;;;;;;;;;;4955202;28;20023;-88
2021/08/30 04:00:47;;;;;;;6.72;5.43;;;;;;;;;;4971901;28;20081;-88
2021/08/30 04:03:13;;;;;;;7.45;5.05;;;;;;;;;;4972015;28;20034;-87
2021/08/30 04:05:41;;;;;;;8.32;6.10;;;;;;;;;;5003965;28;20564;-88
2021/08/30 04:08:09;;;;;;;7.30;5.30;;;;;;;;;;4972947;28;20081;-87
2021/08/30 04:10:35;;;;;;;6.88;5.03;;;;;;;;;;4972809;28;20018;-88
2021/08/30 04:13:01;;;;;;;7.55;6.35;;;;;;;;;;4972309;28;20287;-88
2021/08/30 04:15:27;;;;;;;7.13;5.97;;;;;;;;;;4972062;28;20221;-89
2021/08/30 04:17:53;;;;;;;6.63;5.18;;;;;;;;;;4972539;28;20397;-89
2021/08/30 04:20:19;;;;;;;7.43;6.13;;;;;;;;;;4972011;28;20015;-88
2021/08/30 04:22:44;;;;;;;6.07;5.20;;;;;;;;;;4972346;28;20027;-88
2021/08/30 04:25:10;;;;;;;7.65;5.55;;;;;;;;;;4972328;28;20684;-88
2021/08/30 04:27:35;;;;;;;7.43;5.35;;;;;;;;;;4974180;28;20533;-89
2021/08/30 04:30:01;;;;;;;11.68;6.35;;;;;;;;;;4975757;28;20034;-88
2021/08/30 04:32:31;;;;;;;8.32;6.65;;;;;;;;;;4975329;28;20023;-88
2021/08/30 04:34:57;;;;;;;10.43;6.82;;;;;;;;;;4976168;28;20015;-89
2021/08/30 04:37:22;;;;;;;9.00;6.95;;;;;;;;;;4976342;28;20103;-89
2021/08/30 04:39:48;;;;;;;15.88;8.18;;;;;;;;;;4975996;28;20019;-88
2021/08/30 04:42:13;;;;;;;9.40;7.37;;;;;;;;;;4975683;28;20015;-88
2021/08/30 04:44:38;;;;;;;8.10;6.45;;;;;;;;;;4960619;28;20291;-88
2021/08/30 04:47:05;;;;;;;11.68;8.52;;;;;;;;;;4965376;28;20022;-88
2021/08/30 04:49:30;;;;;;;8.75;7.38;;;;;;;;;;4962156;28;20015;-86
2021/08/30 04:51:56;;;;;;;9.68;7.88;;;;;;;;;;4968795;28;20018;-86
2021/08/30 04:54:21;;;;;;;14.07;8.65;;;;;;;;;;4968833;28;20031;-88
2021/08/30 04:56:47;;;;;;;11.85;9.02;;;;;;;;;;4975289;28;20022;-86
2021/08/30 04:59:12;;;;;;;10.27;8.40;;;;;;;;;;4971430;28;20026;-88
2021/08/30 05:01:38;;;;;;;10.93;9.13;;;;;;;;;;4990712;28;20110;-88
2021/08/30 05:04:03;;;;;;;10.93;8.18;;;;;;;;;;4957146;28;20080;-86
2021/08/30 05:06:29;;;;;;;9.90;8.05;;;;;;;;;;4954624;28;20026;-88
2021/08/30 05:08:54;;;;;;;11.60;9.23;;;;;;;;;;4961224;28;20327;-85
2021/08/30 05:11:19;;;;;;;11.90;8.40;;;;;;;;;;4956433;28;20042;-86
2021/08/30 05:13:44;;;;;;;10.87;8.43;;;;;;;;;;4953613;28;20298;-84
2021/08/30 05:16:10;;;;;;;8.43;5.90;;;;;;;;;;4960980;28;20266;-88
2021/08/30 05:18:35;;;;;;;10.63;7.05;;;;;;;;;;4959449;28;20273;-86
2021/08/30 05:21:00;;;;;;;8.60;6.10;;;;;;;;;;4954641;28;20027;-90
2021/08/30 05:23:26;;;;;;;10.45;7.97;;;;;;;;;;4970479;28;20083;-86
2021/08/30 05:25:51;;;;;;;9.40;6.82;;;;;;;;;;4952986;28;20082;-90
2021/08/30 05:28:16;;;;;;;10.50;7.07;;;;;;;;;;4958158;28;20043;-86
2021/08/30 05:30:42;;;;;;;10.13;7.68;;;;;;;;;;4960053;28;20027;-86
2021/08/30 05:33:07;;;;;;;10.32;8.60;;;;;;;;;;4955685;28;20027;-88
2021/08/30 05:35:33;;;;;;;10.80;8.77;;;;;;;;;;4955061;28;20023;-91
2021/08/30 05:37:58;;;;;;;15.75;9.20;;;;;;;;;;4965203;28;20015;-85
2021/08/30 05:40:24;;;;;;;11.70;9.02;;;;;;;;;;4960206;28;20026;-87
2021/08/30 05:42:49;;;;;;;11.77;9.32;;;;;;;;;;4965485;28;20055;-90
2021/08/30 05:45:15;;;;;;;11.55;8.75;;;;;;;;;;4989159;28;20600;-89
2021/08/30 05:47:42;;;;;;;13.05;10.00;;;;;;;;;;4973592;28;20492;-85
2021/08/30 05:50:07;;;;;;;13.18;9.93;;;;;;;;;;4975961;28;20122;-82
2021/08/30 05:52:32;;;;;;;11.55;8.43;;;;;;;;;;4971582;28;20460;-86
2021/08/30 05:54:58;;;;;;;10.87;8.03;;;;;;;;;;4972395;28;20101;-86
2021/08/30 05:57:23;;;;;;;12.65;9.23;;;;;;;;;;4972383;28;20657;-88
2021/08/30 05:59:48;;;;;;;10.67;8.03;;;;;;;;;;4970722;28;20050;-85
2021/08/30 06:02:14;;;;;;;10.87;8.73;;;;;;;;;;4954318;28;20259;-82
2021/08/30 06:04:39;;;;;;;11.13;8.73;;;;;;;;;;4971241;28;20258;-84
2021/08/30 06:07:04;;;;;;;13.17;9.93;;;;;;;;;;4971004;28;20018;-84
2021/08/30 06:09:30;;;;;;;13.70;11.15;;;;;;;;;;4970074;28;20266;-85
2021/08/30 06:11:56;;;;;;;11.43;8.93;;;;;;;;;;4969116;28;20069;-83
2021/08/30 06:14:21;;;;;;;15.50;10.32;;;;;;;;;;4972506;28;20104;-83
2021/08/30 06:16:49;;;;;;;12.82;10.23;;;;;;;;;;4968959;28;20461;-84
2021/08/30 06:19:15;;;;;;;16.63;11.20;;;;;;;;;;4971216;28;21264;-83
2021/08/30 06:21:40;;;;;;;13.33;9.80;;;;;;;;;;4954010;28;20047;-81
2021/08/30 06:24:06;;;;;;;13.20;10.48;;;;;;;;;;4969494;28;20275;-83
2021/08/30 06:26:33;;;;;;;12.43;9.32;;;;;;;;;;4963662;28;20089;-83
2021/08/30 06:28:58;;;;;;;11.52;9.18;;;;;;;;;;4962611;28;20717;-82
2021/08/30 06:31:23;;;;;;;9.77;8.60;;;;;;;;;;4962096;28;20041;-83
2021/08/30 06:33:51;;;;;;;11.73;9.23;;;;;;;;;;4963829;28;20066;-82
2021/08/30 06:36:17;;;;;;;10.13;8.50;;;;;;;;;;4964458;28;20262;-82
2021/08/30 06:38:42;;;;;;;10.25;7.85;;;;;;;;;;4963058;28;20023;-81
2021/08/30 06:41:08;;;;;;;12.52;8.63;;;;;;;;;;4945442;28;20512;-82
2021/08/30 06:43:33;;;;;;;14.95;8.98;;;;;;;;;;4963155;28;20577;-81
2021/08/30 06:45:58;;;;;;;13.17;8.73;;;;;;;;;;4964876;28;20117;-81
2021/08/30 06:48:23;;;;;;;16.08;13.30;;;;;;;;;;4964792;28;20030;-81
2021/08/30 06:50:49;;;;;;;12.25;10.23;;;;;;;;;;4965821;28;20027;-82
2021/08/30 06:53:17;;;;;;;10.32;9.15;;;;;;;;;;4960466;28;20023;-82
2021/08/30 06:55:42;;;;;;;11.73;8.45;;;;;;;;;;4963681;28;20126;-83
2021/08/30 06:58:07;;;;;;;11.65;8.10;;;;;;;;;;4966780;28;20109;-83
2021/08/30 07:00:33;;;;;;;10.50;8.23;;;;;;;;;;4969538;28;20026;-83
2021/08/30 07:02:58;;;;;;;12.02;9.00;;;;;;;;;;4970632;28;20049;-82
2021/08/30 07:05:23;;;;;;;10.95;8.80;;;;;;;;;;4965137;28;20027;-82
2021/08/30 07:07:48;;;;;;;9.93;8.05;;;;;;;;;;4964124;28;20037;-82
2021/08/30 07:10:14;;;;;;;15.45;9.90;;;;;;;;;;4967765;28;20043;-84
2021/08/30 07:12:39;;;;;;;10.43;8.10;;;;;;;;;;4961704;28;20707;-83
2021/08/30 07:15:04;;;;;;;13.15;9.88;;;;;;;;;;4960877;28;20474;-83
2021/08/30 07:17:30;;;;;;;13.35;9.13;;;;;;;;;;4958240;28;20584;-85
2021/08/30 07:19:55;;;;;;;14.20;9.63;;;;;;;;;;4959342;28;20537;-83
2021/08/30 07:22:20;;;;;;;12.35;9.05;;;;;;;;;;4957780;28;20831;-83
2021/08/30 07:24:46;;;;;;;11.02;8.65;;;;;;;;;;4970298;28;20058;-84
2021/08/30 07:27:11;;;;;;;11.65;8.35;;;;;;;;;;4969428;28;20063;-84
2021/08/30 07:29:37;;;;;;;10.93;8.77;;;;;;;;;;4965184;28;20477;-84
2021/08/30 07:32:02;;;;;;;12.67;8.90;;;;;;;;;;4963756;28;20030;-83
2021/08/30 07:34:27;;;;;;;13.57;8.85;;;;;;;;;;4961042;28;20133;-85
2021/08/30 07:36:53;;;;;;;12.13;9.23;;;;;;;;;;4964952;28;20880;-84
2021/08/30 07:39:19;;;;;;;11.75;9.15;;;;;;;;;;4964145;28;20210;-84
2021/08/30 07:41:45;;;;;;;14.77;9.70;;;;;;;;;;4964492;28;20019;-84
2021/08/30 07:44:10;;;;;;;11.93;8.02;;;;;;;;;;4955403;28;20580;-84
2021/08/30 07:46:35;;;;;;;15.43;9.50;;;;;;;;;;4948675;28;20174;-83
2021/08/30 07:49:00;;;;;;;13.40;9.93;;;;;;;;;;4941692;28;20756;-83
2021/08/30 07:51:26;;;;;;;13.55;9.13;;;;;;;;;;4947233;28;20301;-83
2021/08/30 07:53:51;;;;;;;11.05;8.10;;;;;;;;;;4947144;28;20078;-83
2021/08/30 07:56:16;;;;;;;14.13;7.95;;;;;;;;;;4945574;28;20019;-84
2021/08/30 07:58:42;;;;;;;13.05;9.73;;;;;;;;;;4951350;28;20106;-84
2021/08/30 08:01:07;;;;;;;9.88;7.43;;;;;;;;;;4954875;28;20413;-83
2021/08/30 08:03:33;;;;;;;10.70;8.47;;;;;;;;;;4954295;28;20034;-83
2021/08/30 08:05:58;;;;;;;12.18;7.43;;;;;;;;;;4952806;28;20657;-85
2021/08/30 08:08:23;;;;;;;9.73;7.53;;;;;;;;;;4968705;28;20027;-83
2021/08/30 08:10:48;;;;;;;10.23;8.23;;;;;;;;;;4960969;28;20043;-86
2021/08/30 08:13:14;;;;;;;13.50;8.43;;;;;;;;;;4952839;28;20101;-84
2021/08/30 08:15:39;;;;;;;8.02;6.80;;;;;;;;;;4957644;28;20015;-84
2021/08/30 08:18:05;;;;;;;10.40;8.68;;;;;;;;;;4961716;28;20030;-84
2021/08/30 08:20:31;;;;;;;10.65;8.13;;;;;;;;;;4960466;28;20154;-83
2021/08/30 08:23:01;;;;;;;9.88;7.30;;;;;;;;;;4943285;29;20440;-88
2021/08/30 08:25:26;;;;;;;9.73;7.65;;;;;;;;;;4954974;28;20149;-88
2021/08/30 08:27:52;;;;;;;9.40;7.13;;;;;;;;;;4936860;28;20494;-85
2021/08/30 08:30:17;;;;;;;11.43;7.40;;;;;;;;;;4933417;28;20059;-82
2021/08/30 08:32:43;;;;;;;8.95;7.70;;;;;;;;;;4942182;28;20947;-84
2021/08/30 08:35:09;;;;;;;10.68;6.88;;;;;;;;;;4939817;28;20374;-84
2021/08/30 08:37:35;;;;;;;9.80;7.30;;;;;;;;;;4942201;28;20418;-84
2021/08/30 08:40:00;;;;;;;9.80;6.70;;;;;;;;;;4955872;28;20046;-84
2021/08/30 08:42:25;;;;;;;10.38;6.60;;;;;;;;;;4946102;28;20110;-86
2021/08/30 08:44:51;;;;;;;10.38;7.72;;;;;;;;;;4946436;28;20407;-83
2021/08/30 08:47:17;;;;;;;9.50;6.83;;;;;;;;;;4951538;28;20015;-84
2021/08/30 08:49:51;;;;;;;11.70;8.40;;;;;;;;;;4956080;28;20362;-84
2021/08/30 08:52:20;;;;;;;7.80;5.90;;;;;;;;;;4954848;28;20035;-82
2021/08/30 08:54:46;;;;;;;9.38;7.10;;;;;;;;;;4949964;28;20199;-83
2021/08/30 08:57:11;;;;;;;11.45;6.47;;;;;;;;;;4940388;29;20038;-84
2021/08/30 08:59:39;;;;;;;8.68;7.15;;;;;;;;;;4938495;28;20589;-85
2021/08/30 09:02:06;;;;;;;10.68;7.72;;;;;;;;;;4954018;28;20512;-85
2021/08/30 09:04:35;;;;;;;8.52;6.40;;;;;;;;;;4954338;28;20098;-85
2021/08/30 09:07:07;;;;;;;9.02;5.97;;;;;;;;;;4957503;28;20429;-86
2021/08/30 09:09:32;;;;;;;8.20;5.75;;;;;;;;;;4954434;28;20234;-84
2021/08/30 09:11:58;;;;;;;8.20;6.82;;;;;;;;;;4953564;29;20415;-86
2021/08/30 09:14:24;;;;;;;8.65;6.50;;;;;;;;;;4948593;28;20027;-85
2021/08/30 09:17:00;;;;;;;12.50;9.57;;;;;;;;;;4955877;28;20027;-85
2021/08/30 09:19:27;;;;;;;21.77;17.63;;;;;;;;;;4949362;29;20757;-85
2021/08/30 09:21:52;;;;;;;8.50;6.30;;;;;;;;;;4954385;29;20038;-86
2021/08/30 09:24:23;;;;;;;9.48;7.05;;;;;;;;;;4953089;29;20035;-86
2021/08/30 09:26:56;;;;;;;12.32;6.97;;;;;;;;;;4956021;28;20050;-87
2021/08/30 09:29:23;;;;;;;10.40;8.05;;;;;;;;;;4954014;28;20031;-84
2021/08/30 09:32:15;;;;;;;10.70;7.82;;;;;;;;;;4953857;28;20553;-86
2021/08/30 09:34:44;;;;;;;10.18;8.05;;;;;;;;;;4952554;28;20540;-86
2021/08/30 09:37:21;;;;;;;9.88;7.82;;;;;;;;;;4948823;28;20031;-86
2021/08/30 09:39:48;;;;;;;12.70;8.05;;;;;;;;;;4963478;28;20043;-86
2021/08/30 09:42:16;;;;;;;11.20;8.07;;;;;;;;;;4954175;28;20031;-87
2021/08/30 09:44:47;;;;;;;14.68;9.93;;;;;;;;;;4952199;29;20434;-89
2021/08/30 09:47:24;;;;;;;14.60;9.00;;;;;;;;;;4956629;28;20511;-88
2021/08/30 09:50:21;;;;;;;12.48;8.65;;;;;;;;;;4953828;28;20027;-91
2021/08/30 09:52:46;;;;;;;10.75;8.38;;;;;;;;;;4942522;28;20107;-88
2021/08/30 09:55:11;;;;;;;40.15;35.80;;;;;;;;;;4950204;28;20110;-86
2021/08/30 09:57:38;;;;;;;20.58;18.33;;;;;;;;;;4949959;28;20042;-86
2021/08/30 10:00:04;;;;;;;14.88;10.13;;;;;;;;;;4957028;28;20042;-88
2021/08/30 10:02:30;;;;;;;12.07;8.80;;;;;;;;;;4955265;28;20069;-87
2021/08/30 10:04:59;;;;;;;12.25;8.88;;;;;;;;;;4956091;28;20390;-89
2021/08/30 10:07:25;;;;;;;13.98;10.85;;;;;;;;;;4957668;28;20034;-87
2021/08/30 10:09:50;;;;;;;13.73;10.65;;;;;;;;;;4954657;28;20023;-87
2021/08/30 10:12:16;;;;;;;13.15;9.35;;;;;;;;;;4951501;29;20732;-88
2021/08/30 10:14:41;;;;;;;14.32;10.80;;;;;;;;;;4955250;28;20023;-89
2021/08/30 10:17:06;;;;;;;12.75;8.85;;;;;;;;;;4955055;28;20027;-86
2021/08/30 10:19:37;;;;;;;15.27;11.27;;;;;;;;;;4954062;28;20043;-88
2021/08/30 10:22:21;;;;;;;14.27;10.95;;;;;;;;;;4957054;28;20041;-88
2021/08/30 10:24:47;;;;;;;13.50;10.40;;;;;;;;;;4953121;28;20019;-90
2021/08/30 10:27:14;;;;;;;13.75;9.63;;;;;;;;;;4954989;28;20031;-89
2021/08/30 10:29:41;;;;;;;14.30;11.00;;;;;;;;;;4954564;28;20054;-89
2021/08/30 10:32:10;;;;;;;13.85;10.55;;;;;;;;;;4958235;28;20070;-85
2021/08/30 10:34:38;;;;;;;14.40;10.07;;;;;;;;;;4948244;28;20023;-85
2021/08/30 10:37:04;;;;;;;16.48;11.77;;;;;;;;;;4953009;28;20114;-84
2021/08/30 10:39:40;;;;;;;13.35;10.27;;;;;;;;;;4951995;28;20035;-83
2021/08/30 10:42:05;;;;;;;16.02;9.85;;;;;;;;;;4950115;28;20093;-84
2021/08/30 10:44:32;;;;;;;16.92;12.55;;;;;;;;;;4969906;28;20035;-84
2021/08/30 10:47:00;;;;;;;14.25;11.57;;;;;;;;;;4973030;28;20031;-84
2021/08/30 10:49:27;;;;;;;14.52;10.93;;;;;;;;;;4965603;28;20442;-84
2021/08/30 10:52:03;;;;;;;12.43;10.13;;;;;;;;;;4966158;28;20613;-85
2021/08/30 10:54:28;;;;;;;12.95;10.15;;;;;;;;;;4951799;28;20604;-85
2021/08/30 10:56:55;;;;;;;13.57;9.33;;;;;;;;;;4971663;28;20053;-85
2021/08/30 10:59:25;;;;;;;14.25;10.05;;;;;;;;;;4969830;28;20270;-85
2021/08/30 11:01:55;;;;;;;12.20;9.75;;;;;;;;;;4968527;28;20297;-84
2021/08/30 11:04:30;;;;;;;15.02;10.05;;;;;;;;;;4973572;28;20031;-84
2021/08/30 11:06:55;;;;;;;15.68;10.90;;;;;;;;;;4965438;28;20437;-84
2021/08/30 11:09:21;;;;;;;21.00;12.77;;;;;;;;;;4975271;28;20022;-84
2021/08/30 11:11:49;;;;;;;14.90;11.00;;;;;;;;;;4971049;28;20051;-83
2021/08/30 11:14:14;;;;;;;13.45;9.73;;;;;;;;;;4969489;28;20293;-85
2021/08/30 11:16:39;;;;;;;11.77;9.02;;;;;;;;;;4970842;28;20429;-84
2021/08/30 11:19:05;;;;;;;11.55;7.22;;;;;;;;;;4973218;28;20027;-84
2021/08/30 11:21:30;;;;;;;14.68;8.02;;;;;;;;;;4972664;28;20014;-86
2021/08/30 11:23:55;;;;;;;11.93;8.17;;;;;;;;;;4972838;28;20114;-84
2021/08/30 11:26:21;;;;;;;13.82;9.70;;;;;;;;;;4972080;28;20796;-85
2021/08/30 11:28:53;;;;;;;13.75;9.40;;;;;;;;;;4971520;28;20030;-86
2021/08/30 11:31:23;;;;;;;11.65;9.60;;;;;;;;;;4970455;28;20101;-84
2021/08/30 11:33:48;;;;;;;12.98;9.35;;;;;;;;;;4971640;28;20314;-88
2021/08/30 11:36:16;;;;;;;10.75;8.30;;;;;;;;;;4970717;28;20522;-81
2021/08/30 11:38:51;;;;;;;12.93;9.57;;;;;;;;;;4970198;28;20030;-85
2021/08/30 11:41:16;;;;;;;13.10;9.23;;;;;;;;;;4971093;28;20060;-83
2021/08/30 11:43:42;;;;;;;15.13;10.10;;;;;;;;;;4965030;28;20517;-83
2021/08/30 11:46:07;;;;;;;14.18;10.00;;;;;;;;;;4956915;28;21091;-83
2021/08/30 11:48:32;;;;;;;13.38;9.95;;;;;;;;;;4955765;28;20073;-83
2021/08/30 11:51:03;;;;;;;13.93;9.30;;;;;;;;;;4951985;28;20024;-82
2021/08/30 11:53:28;;;;;;;13.05;9.52;;;;;;;;;;4953984;28;20241;-83
2021/08/30 11:55:53;;;;;;;16.93;10.57;;;;;;;;;;4958038;28;20079;-84
2021/08/30 11:58:28;;;;;;;12.30;9.82;;;;;;;;;;4956219;28;21067;-83
2021/08/30 12:01:03;;;;;;;13.50;11.00;;;;;;;;;;4956026;28;20328;-84
2021/08/30 12:03:29;;;;;;;16.30;11.20;;;;;;;;;;4962087;28;20035;-83
2021/08/30 12:05:54;;;;;;;13.98;11.18;;;;;;;;;;4953183;28;20435;-82
2021/08/30 12:08:21;;;;;;;12.27;10.02;;;;;;;;;;4951097;28;20113;-82
2021/08/30 12:10:46;;;;;;;14.45;10.63;;;;;;;;;;4948666;28;20054;-86
2021/08/30 12:13:32;;;;;;;13.70;10.57;;;;;;;;;;4953932;28;20643;-83
2021/08/30 12:15:57;;;;;;;13.35;10.02;;;;;;;;;;4950638;28;20649;-83
2021/08/30 12:18:24;;;;;;;13.65;9.63;;;;;;;;;;4950334;28;20024;-84
2021/08/30 12:20:56;;;;;;;14.30;11.57;;;;;;;;;;4950620;28;20023;-87
2021/08/30 12:23:21;;;;;;;12.45;9.85;;;;;;;;;;4925332;28;20027;-84
2021/08/30 12:25:48;;;;;;;12.70;9.50;;;;;;;;;;4957414;28;20609;-83
2021/08/30 12:28:14;;;;;;;16.02;11.60;;;;;;;;;;4950226;28;20355;-83
2021/08/30 12:30:41;;;;;;;19.08;11.63;;;;;;;;;;4950349;28;20027;-81
2021/08/30 12:33:12;;;;;;;12.45;9.65;;;;;;;;;;4951085;28;20431;-82
2021/08/30 12:35:37;;;;;;;13.75;10.30;;;;;;;;;;4953866;28;20371;-82
2021/08/30 12:38:07;;;;;;;16.30;12.30;;;;;;;;;;4935808;28;20042;-81
2021/08/30 12:40:33;;;;;;;20.13;16.40;;;;;;;;;;4946570;28;20263;-83
2021/08/30 12:42:58;;;;;;;20.58;18.05;;;;;;;;;;4950319;28;20577;-83
2021/08/30 12:45:24;;;;;;;14.52;11.35;;;;;;;;;;4950241;28;20097;-83
2021/08/30 12:47:49;;;;;;;16.20;11.40;;;;;;;;;;4950733;28;20481;-82
2021/08/30 12:50:15;;;;;;;12.98;11.05;;;;;;;;;;4953835;29;20047;-81
2021/08/30 12:52:40;;;;;;;14.52;11.30;;;;;;;;;;4953912;28;20078;-83
2021/08/30 12:55:07;;;;;;;16.02;11.23;;;;;;;;;;4953610;29;20023;-81
2021/08/30 12:57:32;;;;;;;13.73;10.07;;;;;;;;;;4953807;29;20680;-81
2021/08/30 12:59:58;;;;;;;17.00;12.13;;;;;;;;;;4953913;29;20079;-83
2021/08/30 13:02:24;;;;;;;14.32;11.50;;;;;;;;;;4953366;28;20266;-82
2021/08/30 13:04:49;;;;;;;16.42;11.57;;;;;;;;;;4954055;28;20015;-82
2021/08/30 13:07:14;;;;;;;21.00;11.98;;;;;;;;;;4953477;28;20098;-82
2021/08/30 13:09:40;;;;;;;11.70;8.70;;;;;;;;;;4954029;29;20060;-82
2021/08/30 13:12:05;;;;;;;11.50;8.97;;;;;;;;;;4954257;28;20102;-82
2021/08/30 13:14:30;;;;;;;13.30;10.00;;;;;;;;;;4951156;29;20283;-81
2021/08/30 13:16:55;;;;;;;13.63;10.23;;;;;;;;;;4952983;29;20023;-83
2021/08/30 13:19:21;;;;;;;23.80;19.67;;;;;;;;;;4968878;28;20034;-82
2021/08/30 13:21:46;;;;;;;16.35;12.98;;;;;;;;;;4953954;28;20073;-83
2021/08/30 13:24:11;;;;;;;14.10;10.53;;;;;;;;;;4954892;28;20025;-83
2021/08/30 13:26:37;;;;;;;13.47;9.27;;;;;;;;;;4953013;28;20028;-82
2021/08/30 13:29:05;;;;;;;12.87;9.27;;;;;;;;;;4947227;28;20326;-82
2021/08/30 13:31:31;;;;;;;12.48;9.05;;;;;;;;;;4942439;28;20275;-82
2021/08/30 13:33:56;;;;;;;15.93;9.88;;;;;;;;;;4953857;28;20386;-82
2021/08/30 13:36:22;;;;;;;14.82;10.23;;;;;;;;;;4953329;28;20030;-82
2021/08/30 13:38:47;;;;;;;11.20;8.73;;;;;;;;;;4953470;29;20031;-82
2021/08/30 13:41:13;;;;;;;21.35;10.55;;;;;;;;;;4953850;28;20019;-81
2021/08/30 13:43:38;;;;;;;11.57;8.35;;;;;;;;;;4962224;28;20058;-81
2021/08/30 13:46:03;;;;;;;13.90;9.40;;;;;;;;;;4962707;28;20041;-81
2021/08/30 13:48:28;;;;;;;11.45;9.43;;;;;;;;;;4959752;28;20250;-81
2021/08/30 13:50:54;;;;;;;13.23;9.70;;;;;;;;;;4958975;28;20113;-82
2021/08/30 13:53:19;;;;;;;11.68;10.15;;;;;;;;;;4958357;28;20621;-82
2021/08/30 13:55:44;;;;;;;11.87;8.77;;;;;;;;;;4957103;28;20022;-83
2021/08/30 13:58:10;;;;;;;7.95;5.95;;;;;;;;;;4959602;28;20051;-81
2021/08/30 14:00:35;;;;;;;9.15;7.10;;;;;;;;;;4935896;28;20028;-81
2021/08/30 14:03:00;;;;;;;9.07;5.93;;;;;;;;;;4951303;28;20557;-81
2021/08/30 14:05:27;;;;;;;11.52;8.10;;;;;;;;;;4953394;28;20422;-82
2021/08/30 14:07:52;;;;;;;10.32;6.25;;;;;;;;;;4959802;28;20098;-81
2021/08/30 14:10:18;;;;;;;8.55;6.45;;;;;;;;;;4958441;28;20027;-81
2021/08/30 14:12:43;;;;;;;7.38;5.65;;;;;;;;;;4982150;28;20023;-81
2021/08/30 14:15:10;;;;;;;10.63;6.40;;;;;;;;;;4958016;28;20038;-82
2021/08/30 14:17:35;;;;;;;9.52;7.13;;;;;;;;;;4950659;28;21334;-81
2021/08/30 14:20:01;;;;;;;10.38;6.72;;;;;;;;;;4968708;28;20053;-81
2021/08/30 14:22:26;;;;;;;12.07;7.60;;;;;;;;;;4951717;28;20027;-81
2021/08/30 14:24:52;;;;;;;8.80;6.82;;;;;;;;;;4952798;28;20023;-83
2021/08/30 14:27:17;;;;;;;11.05;7.05;;;;;;;;;;4954824;28;20094;-81
2021/08/30 14:29:44;;;;;;;13.57;8.40;;;;;;;;;;4953412;28;20500;-83
2021/08/30 14:32:09;;;;;;;10.95;7.78;;;;;;;;;;4958311;28;20042;-83
2021/08/30 14:34:35;;;;;;;10.95;7.30;;;;;;;;;;4952148;28;20035;-83